Time;durP1;ratioP1;P1;durP2;ratioP2;P2;SDS_P1;SDS_P2;PMS_P1;PMS_P2;Temp;Humidity;BMP_temperature;BMP_pressure;BME280_temperature;BME280_humidity;BME280_pressure;Samples;Min_cycle;Max_cycle;Signal;HPM_P1;HPM_P2
2021/03/23 00:42:19;;;;;;;4.87;4.37;;;6.40;99.90;;;;;;5962014;23;20417;-89
2021/03/23 00:57:50;;;;;;;6.23;5.43;;;6.30;99.90;;;;;;5856366;24;20818;-88
2021/03/23 01:52:10;;;;;;;;;;;;;;;;;;;;;
2021/03/23 04:10:50;;;;;;;6.43;4.67;;;6.10;99.90;;;;;;5940278;23;20425;-88
2021/03/23 04:14:08;;;;;;;6.13;4.53;;;6.10;99.90;;;;;;6161585;23;20420;-87
2021/03/23 04:17:09;;;;;;;6.10;4.43;;;6.10;99.90;;;;;;6166773;23;20912;-87
2021/03/23 04:20:28;;;;;;;5.90;5.30;;;6.10;99.90;;;;;;6168034;23;20409;-86
2021/03/23 04:27:26;;;;;;;6.43;5.67;;;6.10;99.90;;;;;;6075617;23;20443;-87
2021/03/23 05:01:54;;;;;;;6.23;4.33;;;6.10;99.90;;;;;;5896808;23;20436;-88
2021/03/23 05:04:34;;;;;;;4.63;4.23;;;6.10;99.90;;;;;;6023294;23;20400;-87
2021/03/23 07:20:49;;;;;;;;;;;;;;;;;;;;;
2021/03/23 08:01:19;;;;;;;12.23;9.77;;;7.10;99.90;;;;;;4759428;30;20463;-90
2021/03/23 08:04:00;;;;;;;10.43;8.83;;;7.20;99.90;;;;;;4916828;29;20295;-90
2021/03/23 08:06:36;;;;;;;13.87;10.13;;;7.10;99.90;;;;;;4925253;29;20851;-90
2021/03/23 08:09:42;;;;;;;12.27;10.40;;;7.10;99.90;;;;;;4924727;29;20484;-90
2021/03/23 08:12:29;;;;;;;15.20;10.93;;;7.10;99.90;;;;;;4905148;29;20994;-90
2021/03/23 08:15:08;;;;;;;14.00;11.43;;;7.10;99.90;;;;;;4906964;29;20453;-90
2021/03/23 08:34:18;;;;;;;15.43;13.40;;;7.20;99.90;;;;;;4918117;28;20880;-90
2021/03/23 08:37:14;;;;;;;;;;;;;;;;;;;;;
2021/03/23 09:06:59;;;;;;;13.90;12.40;;;7.60;99.90;;;;;;4866843;29;20489;-90
2021/03/23 09:14:17;;;;;;;15.00;12.80;;;7.70;99.90;;;;;;4920393;29;20443;-90
2021/03/23 09:17:15;;;;;;;16.20;14.50;;;7.80;99.90;;;;;;5022828;28;20447;-90
2021/03/23 09:19:49;;;;;;;19.97;14.03;;;7.80;99.90;;;;;;5040388;28;20503;-90
2021/03/23 09:22:39;;;;;;;16.17;12.90;;;7.90;99.90;;;;;;5024256;28;20479;-90
2021/03/23 09:25:47;;;;;;;15.90;14.30;;;8.00;99.90;;;;;;5037849;28;20436;-89
2021/03/23 09:28:51;;;;;;;17.63;14.10;;;8.00;99.90;;;;;;5023483;28;20471;-89
2021/03/23 09:32:01;;;;;;;21.17;13.93;;;8.10;99.90;;;;;;5040764;28;20487;-90
2021/03/23 09:35:04;;;;;;;16.73;13.50;;;8.10;99.90;;;;;;5038431;28;20432;-90
2021/03/23 09:37:39;;;;;;;18.50;15.43;;;8.20;99.90;;;;;;5023048;28;20502;-90
2021/03/23 09:40:38;;;;;;;17.90;15.13;;;8.20;99.90;;;;;;5038168;28;20455;-90
2021/03/23 09:43:21;;;;;;;17.30;14.10;;;8.20;99.90;;;;;;5021676;28;20439;-90
2021/03/23 09:46:31;;;;;;;17.67;13.70;;;8.30;99.90;;;;;;5023187;28;20555;-91
2021/03/23 11:58:22;;;;;;;;;;;;;;;;;;;;;
2021/03/23 12:08:48;;;;;;;28.23;20.70;;;10.30;99.90;;;;;;4833477;29;20484;-89
2021/03/23 12:11:26;;;;;;;25.60;20.77;;;10.30;99.90;;;;;;4930637;28;20506;-89
2021/03/23 12:14:09;;;;;;;23.87;18.90;;;10.30;99.90;;;;;;4980310;28;20588;-89
2021/03/23 12:17:10;;;;;;;28.20;21.47;;;10.30;99.90;;;;;;4997491;28;20504;-89
2021/03/23 12:19:44;;;;;;;29.00;22.03;;;10.30;99.90;;;;;;4979638;28;20503;-89
2021/03/23 12:22:12;;;;;;;26.90;22.03;;;10.30;99.90;;;;;;4979824;28;20453;-89
2021/03/23 12:24:50;;;;;;;25.60;21.30;;;10.30;99.90;;;;;;4979508;28;20456;-89
2021/03/23 12:27:20;;;;;;;23.97;20.30;;;10.30;99.90;;;;;;4979839;28;20946;-89
2021/03/23 12:43:14;;;;;;;30.13;22.60;;;10.40;99.90;;;;;;4881351;29;20463;-89
2021/03/23 13:17:52;;;;;;;30.67;22.73;;;10.70;99.90;;;;;;4780864;29;20198;-89
2021/03/23 13:20:21;;;;;;;23.07;20.30;;;10.70;99.90;;;;;;4873326;29;20445;-89
2021/03/23 13:22:51;;;;;;;26.83;21.80;;;10.70;99.90;;;;;;4906918;29;20517;-90
2021/03/23 13:25:31;;;;;;;25.85;22.50;;;10.70;99.90;;;;;;4904126;29;20461;-89
2021/03/23 13:32:58;;;;;;;;;;;;;;;;;;;;;
2021/03/23 13:55:16;;;;;;;25.23;20.30;;;11.20;99.90;;;;;;4863519;29;20532;-87
2021/03/23 13:57:43;;;;;;;23.77;20.97;;;11.20;99.90;;;;;;4935071;29;20436;-87
2021/03/23 14:00:12;;;;;;;26.57;19.70;;;11.20;99.90;;;;;;4963262;28;20442;-87
2021/03/23 14:02:40;;;;;;;26.00;20.33;;;11.30;99.90;;;;;;4962454;28;20450;-87
2021/03/23 14:05:08;;;;;;;22.80;19.33;;;11.40;99.90;;;;;;4978885;28;20448;-87
2021/03/23 14:07:39;;;;;;;22.97;19.47;;;11.50;99.90;;;;;;4981044;28;20946;-88
2021/03/23 14:10:11;;;;;;;21.97;19.57;;;11.60;99.90;;;;;;5060988;28;20594;-87
2021/03/23 14:12:39;;;;;;;22.50;19.67;;;11.60;99.90;;;;;;5061555;28;20821;-87
2021/03/23 14:15:16;;;;;;;22.70;20.40;;;11.70;99.90;;;;;;5061644;28;20789;-87
2021/03/23 14:17:43;;;;;;;23.00;20.27;;;11.70;99.90;;;;;;5061365;28;20433;-87
2021/03/23 14:20:12;;;;;;;25.23;19.83;;;11.70;99.90;;;;;;5060148;28;20464;-87
2021/03/23 14:22:39;;;;;;;26.23;22.33;;;11.70;99.90;;;;;;5060289;28;20555;-87
2021/03/23 14:25:24;;;;;;;27.20;21.30;;;11.70;99.90;;;;;;5060343;28;20829;-87
2021/03/23 14:27:53;;;;;;;25.50;20.67;;;11.70;99.90;;;;;;5061552;28;20456;-87
2021/03/23 14:30:24;;;;;;;27.27;19.87;;;11.70;99.90;;;;;;5077730;28;20449;-87
2021/03/23 14:32:52;;;;;;;24.30;20.00;;;11.70;99.90;;;;;;5061024;28;20463;-87
2021/03/23 14:35:20;;;;;;;30.77;21.77;;;11.70;99.90;;;;;;5061060;28;20495;-87
2021/03/23 14:37:49;;;;;;;24.17;19.30;;;11.70;99.90;;;;;;5061193;28;20445;-87
2021/03/23 14:40:23;;;;;;;24.50;19.63;;;11.70;99.90;;;;;;5060359;28;20459;-86
2021/03/23 14:42:52;;;;;;;25.10;20.57;;;11.70;99.90;;;;;;5060343;28;20443;-86
2021/03/23 14:45:20;;;;;;;25.73;21.07;;;11.60;99.90;;;;;;5067301;28;20445;-87
2021/03/23 14:47:48;;;;;;;23.87;21.23;;;11.60;99.90;;;;;;5061548;28;20499;-87
2021/03/23 14:50:16;;;;;;;24.60;19.53;;;11.60;99.90;;;;;;5060566;28;20450;-87
2021/03/23 14:52:45;;;;;;;21.50;19.30;;;11.70;99.90;;;;;;5060725;28;20522;-87
2021/03/23 14:55:18;;;;;;;25.37;20.90;;;11.70;99.90;;;;;;5060045;28;20453;-87
2021/03/23 14:57:46;;;;;;;28.40;22.50;;;11.60;99.90;;;;;;5060019;28;20476;-87
2021/03/23 15:00:29;;;;;;;21.83;19.23;;;11.70;99.90;;;;;;5060174;28;20440;-87
2021/03/23 15:02:57;;;;;;;24.77;21.37;;;11.60;99.90;;;;;;5060231;28;20441;-87
2021/03/23 15:05:25;;;;;;;22.67;20.17;;;11.60;99.90;;;;;;5059828;28;21023;-87
2021/03/23 15:07:53;;;;;;;27.20;20.63;;;11.50;99.90;;;;;;5059848;28;20458;-87
2021/03/23 15:10:27;;;;;;;24.87;20.30;;;11.50;99.90;;;;;;5059658;28;20206;-87
2021/03/23 15:12:56;;;;;;;25.20;21.77;;;11.50;99.90;;;;;;5059785;28;20448;-87
2021/03/23 15:15:27;;;;;;;25.43;20.57;;;11.50;99.90;;;;;;5060674;28;20464;-86
2021/03/23 15:17:55;;;;;;;26.73;21.53;;;11.40;99.90;;;;;;5060726;28;20899;-89
2021/03/23 15:20:26;;;;;;;25.70;21.20;;;11.40;99.90;;;;;;5060687;28;20445;-87
2021/03/23 15:22:54;;;;;;;24.93;22.37;;;11.40;99.90;;;;;;5059987;28;20429;-87
2021/03/23 15:25:25;;;;;;;27.10;21.43;;;11.40;99.90;;;;;;5059354;28;20472;-87
2021/03/23 15:27:52;;;;;;;23.70;20.47;;;11.40;99.90;;;;;;5059652;28;20434;-87
2021/03/23 15:30:24;;;;;;;25.67;20.83;;;11.50;99.90;;;;;;5059552;28;20456;-87
2021/03/23 15:32:52;;;;;;;25.57;21.37;;;11.50;99.90;;;;;;5059649;28;20448;-87
2021/03/23 15:35:21;;;;;;;25.33;21.47;;;11.50;99.90;;;;;;5059943;28;20942;-86
2021/03/23 15:37:51;;;;;;;27.10;22.10;;;11.50;99.90;;;;;;5060793;28;20468;-87
2021/03/23 15:40:21;;;;;;;26.20;21.37;;;11.60;99.90;;;;;;5061167;28;20456;-87
2021/03/23 15:42:49;;;;;;;23.90;20.47;;;11.60;99.90;;;;;;5077601;28;20491;-87
2021/03/23 15:45:29;;;;;;;26.00;21.80;;;11.60;99.90;;;;;;5060812;28;20918;-86
2021/03/23 15:47:58;;;;;;;24.73;21.30;;;11.50;99.90;;;;;;5060743;28;20469;-86
2021/03/23 15:50:27;;;;;;;23.70;20.80;;;11.50;99.90;;;;;;5060778;28;20480;-86
2021/03/23 15:52:55;;;;;;;25.87;23.07;;;11.50;99.90;;;;;;5060514;28;20454;-86
2021/03/23 15:55:27;;;;;;;22.43;20.03;;;11.50;99.90;;;;;;5060662;28;20869;-86
2021/03/23 15:57:54;;;;;;;24.10;21.50;;;11.50;99.90;;;;;;5060360;28;20456;-84
2021/03/23 16:00:25;;;;;;;24.90;20.20;;;11.50;99.90;;;;;;5059338;28;20960;-81
2021/03/23 16:02:54;;;;;;;24.93;20.77;;;11.50;99.90;;;;;;5059533;28;20819;-84
2021/03/23 16:05:25;;;;;;;24.33;20.97;;;11.50;99.90;;;;;;5064203;28;20464;-84
2021/03/23 16:07:56;;;;;;;23.87;21.23;;;11.50;99.90;;;;;;5059399;28;20433;-84
2021/03/23 16:10:24;;;;;;;24.77;21.27;;;11.40;99.90;;;;;;5059632;28;20949;-83
2021/03/23 16:12:51;;;;;;;26.10;22.17;;;11.40;99.90;;;;;;5060080;28;20453;-89
2021/03/23 16:15:33;;;;;;;26.50;21.67;;;11.40;99.90;;;;;;5059399;28;20453;-83
2021/03/23 16:18:03;;;;;;;24.33;21.40;;;11.30;99.90;;;;;;5059255;28;20479;-83
2021/03/23 16:20:31;;;;;;;23.17;20.50;;;11.30;99.90;;;;;;5058971;28;21009;-83
2021/03/23 16:23:02;;;;;;;25.80;22.97;;;11.20;99.90;;;;;;5076616;28;20444;-83
2021/03/23 16:25:32;;;;;;;26.10;22.27;;;11.20;99.90;;;;;;5075668;28;20486;-84
2021/03/23 16:28:00;;;;;;;25.53;21.80;;;11.20;99.90;;;;;;5059379;28;20480;-84
2021/03/23 16:30:29;;;;;;;25.00;21.30;;;11.10;99.90;;;;;;5059891;28;20948;-82
2021/03/23 16:32:58;;;;;;;25.30;22.70;;;11.10;99.90;;;;;;5077669;28;20502;-85
2021/03/23 16:35:28;;;;;;;24.00;21.13;;;11.00;99.90;;;;;;5060550;28;20453;-86
2021/03/23 16:37:58;;;;;;;26.77;21.63;;;11.00;99.90;;;;;;5058281;28;20999;-85
2021/03/23 16:40:28;;;;;;;27.10;23.40;;;11.00;99.90;;;;;;5041712;28;20198;-86
2021/03/23 16:42:58;;;;;;;26.87;23.93;;;10.90;99.90;;;;;;5044716;28;20450;-86
2021/03/23 16:45:29;;;;;;;26.47;23.50;;;10.90;99.90;;;;;;5062245;28;20459;-86
2021/03/23 16:47:57;;;;;;;25.80;22.27;;;10.80;99.90;;;;;;5082028;28;20472;-86
2021/03/23 16:50:27;;;;;;;23.77;21.23;;;10.70;99.90;;;;;;5084560;28;20494;-86
2021/03/23 16:52:56;;;;;;;30.87;23.63;;;10.70;99.90;;;;;;5065518;28;20818;-86
2021/03/23 16:55:28;;;;;;;27.80;22.67;;;10.60;99.90;;;;;;5065175;28;20559;-85
2021/03/23 16:57:57;;;;;;;25.10;21.97;;;10.60;99.90;;;;;;5062161;28;20484;-86
2021/03/23 17:00:28;;;;;;;27.60;22.73;;;10.50;99.90;;;;;;5045528;28;20438;-85
2021/03/23 17:02:56;;;;;;;28.23;22.43;;;10.50;99.90;;;;;;5061723;28;20458;-86
2021/03/23 17:05:24;;;;;;;25.57;22.97;;;10.40;99.90;;;;;;5045474;28;20469;-86
2021/03/23 17:07:51;;;;;;;25.93;21.47;;;10.40;99.90;;;;;;5045156;28;20519;-85
2021/03/23 17:10:23;;;;;;;24.50;20.70;;;10.30;99.90;;;;;;5045376;28;20523;-85
2021/03/23 17:12:53;;;;;;;26.57;23.40;;;10.30;99.90;;;;;;5064318;28;20449;-86
2021/03/23 17:15:23;;;;;;;26.77;23.13;;;10.20;99.90;;;;;;5083810;28;20433;-85
2021/03/23 17:18:06;;;;;;;26.37;22.57;;;10.20;99.90;;;;;;5066168;28;20465;-86
2021/03/23 17:20:37;;;;;;;29.60;24.87;;;10.20;99.90;;;;;;5064492;28;20444;-85
2021/03/23 17:23:06;;;;;;;25.87;23.17;;;10.10;99.90;;;;;;5062405;28;20950;-86
2021/03/23 17:25:39;;;;;;;25.80;22.97;;;10.10;99.90;;;;;;5064909;28;20497;-86
2021/03/23 17:28:10;;;;;;;27.63;23.03;;;10.00;99.90;;;;;;5063427;28;20482;-87
2021/03/23 17:30:38;;;;;;;28.70;23.27;;;10.00;99.90;;;;;;5046286;28;20458;-87
2021/03/23 17:33:06;;;;;;;33.60;24.10;;;9.90;99.90;;;;;;5048782;28;20438;-87
2021/03/23 17:35:34;;;;;;;29.80;24.20;;;10.00;99.90;;;;;;5046821;28;20457;-87
2021/03/23 17:38:06;;;;;;;25.87;22.37;;;9.90;99.90;;;;;;5061575;28;20527;-87
2021/03/23 17:40:53;;;;;;;28.40;24.80;;;9.80;99.90;;;;;;5065484;28;20476;-87
2021/03/23 17:43:23;;;;;;;29.87;24.77;;;9.80;99.90;;;;;;5082629;28;20501;-86
2021/03/23 17:45:55;;;;;;;27.00;23.20;;;9.80;99.90;;;;;;5061795;28;20461;-87
2021/03/23 17:48:24;;;;;;;30.33;27.03;;;9.80;99.90;;;;;;5052777;28;20481;-87
2021/03/23 17:50:54;;;;;;;33.40;29.80;;;9.70;99.90;;;;;;5045578;28;20442;-87
2021/03/23 17:53:29;;;;;;;31.20;27.90;;;9.70;99.90;;;;;;5045492;28;20939;-87
2021/03/23 17:55:58;;;;;;;33.70;28.83;;;9.60;99.90;;;;;;5062431;28;20458;-87
2021/03/23 17:58:28;;;;;;;35.07;27.00;;;9.60;99.90;;;;;;5047459;28;20470;-86
2021/03/23 18:00:57;;;;;;;30.57;25.87;;;9.50;99.90;;;;;;5065902;28;20869;-87
2021/03/23 18:03:29;;;;;;;31.80;25.70;;;9.50;99.90;;;;;;5065663;28;20468;-87
2021/03/23 18:05:57;;;;;;;31.60;23.57;;;9.60;99.90;;;;;;5066377;28;20292;-87
2021/03/23 18:08:26;;;;;;;29.60;26.40;;;9.50;99.90;;;;;;5065690;28;20469;-87
2021/03/23 18:10:55;;;;;;;29.80;26.42;;;9.40;99.90;;;;;;5067054;28;20445;-87
2021/03/23 18:13:30;;;;;;;27.30;24.40;;;9.40;99.90;;;;;;5083328;28;20186;-85
2021/03/23 18:15:59;;;;;;;27.30;24.37;;;9.30;99.90;;;;;;5061212;28;20452;-85
2021/03/23 18:18:28;;;;;;;28.30;23.57;;;9.30;99.90;;;;;;5064750;28;21005;-86
2021/03/23 18:20:58;;;;;;;26.23;23.20;;;9.20;99.90;;;;;;5067238;28;20539;-86
2021/03/23 18:23:28;;;;;;;28.60;25.33;;;9.10;99.90;;;;;;5067244;28;20518;-86
2021/03/23 18:25:57;;;;;;;29.30;24.07;;;9.10;99.90;;;;;;5067897;28;20480;-86
2021/03/23 18:28:25;;;;;;;30.00;26.47;;;9.00;99.90;;;;;;5067524;28;20491;-86
2021/03/23 18:30:54;;;;;;;30.73;26.73;;;9.00;99.90;;;;;;5068094;28;20449;-86
2021/03/23 18:33:26;;;;;;;28.97;24.57;;;8.90;99.90;;;;;;5067378;28;20442;-86
2021/03/23 18:35:54;;;;;;;27.70;23.77;;;8.90;99.90;;;;;;5067136;28;20461;-86
2021/03/23 18:38:25;;;;;;;30.90;25.13;;;8.80;99.90;;;;;;5065952;28;20480;-87
2021/03/23 18:40:54;;;;;;;33.03;28.37;;;8.80;99.90;;;;;;5066463;28;20442;-87
2021/03/23 18:43:24;;;;;;;30.53;27.00;;;8.70;99.90;;;;;;5067086;28;20457;-87
2021/03/23 18:45:52;;;;;;;31.83;28.40;;;8.60;99.90;;;;;;5065236;28;20456;-87
2021/03/23 18:48:21;;;;;;;36.50;30.03;;;8.60;99.90;;;;;;5064830;28;20468;-87
2021/03/23 18:50:49;;;;;;;32.50;27.70;;;8.50;99.90;;;;;;5063934;28;20536;-88
2021/03/23 18:53:17;;;;;;;40.10;33.17;;;8.50;99.90;;;;;;5063331;28;20445;-87
2021/03/23 18:55:45;;;;;;;42.87;36.67;;;8.40;99.90;;;;;;5063128;28;20465;-87
2021/03/23 18:58:19;;;;;;;39.40;34.17;;;8.30;99.90;;;;;;5064634;28;20484;-86
2021/03/23 19:00:49;;;;;;;39.90;34.47;;;8.30;99.90;;;;;;5085287;28;20413;-86
2021/03/23 19:03:21;;;;;;;36.97;32.97;;;8.20;99.90;;;;;;5068785;28;20484;-86
2021/03/23 19:05:50;;;;;;;40.30;32.80;;;8.20;99.90;;;;;;5068722;28;20437;-86
2021/03/23 19:08:22;;;;;;;37.17;33.20;;;8.10;99.90;;;;;;5070064;28;20465;-86
2021/03/23 19:10:53;;;;;;;37.43;31.83;;;8.10;99.90;;;;;;5069908;28;20479;-86
2021/03/23 19:13:25;;;;;;;39.97;32.27;;;8.10;99.90;;;;;;5068791;28;20460;-86
2021/03/23 19:15:55;;;;;;;37.03;32.27;;;7.90;99.90;;;;;;5073490;28;20457;-86
2021/03/23 19:18:27;;;;;;;45.17;34.80;;;7.90;99.90;;;;;;5062752;28;20484;-86
2021/03/23 19:20:56;;;;;;;41.60;36.50;;;7.90;99.90;;;;;;5063146;28;20437;-86
2021/03/23 19:23:26;;;;;;;45.93;36.20;;;7.80;99.90;;;;;;5062509;28;20437;-86
2021/03/23 19:25:55;;;;;;;44.17;36.00;;;7.80;99.90;;;;;;5080331;28;20417;-86
2021/03/23 19:28:24;;;;;;;43.03;35.87;;;7.80;99.90;;;;;;5080016;28;20818;-86
2021/03/23 19:30:51;;;;;;;45.10;37.03;;;7.70;99.90;;;;;;5062454;28;20445;-86
2021/03/23 19:33:26;;;;;;;48.33;38.70;;;7.60;99.90;;;;;;5080431;28;20506;-86
2021/03/23 19:35:57;;;;;;;53.17;41.80;;;7.60;99.90;;;;;;5062603;28;20539;-86
2021/03/23 19:38:26;;;;;;;49.37;39.77;;;7.60;99.90;;;;;;5064235;28;20535;-86
2021/03/23 19:40:56;;;;;;;47.97;40.10;;;7.60;99.90;;;;;;5067958;28;20453;-86
2021/03/23 19:43:27;;;;;;;52.05;39.92;;;7.50;99.90;;;;;;5065123;28;20446;-85
2021/03/23 19:46:20;;;;;;;49.40;38.30;;;7.60;99.90;;;;;;5067328;28;20206;-86
2021/03/23 19:48:53;;;;;;;51.07;40.07;;;7.60;99.90;;;;;;5065435;28;20540;-86
2021/03/23 19:51:26;;;;;;;52.05;41.42;;;7.50;99.90;;;;;;5082590;28;20456;-86
2021/03/23 19:53:55;;;;;;;55.70;39.30;;;7.50;99.90;;;;;;5081933;28;20195;-86
2021/03/23 19:56:25;;;;;;;53.33;42.63;;;7.50;99.90;;;;;;5063999;28;20452;-86
2021/03/23 19:58:55;;;;;;;51.03;41.80;;;7.40;99.90;;;;;;5064361;28;20508;-86
2021/03/23 20:01:26;;;;;;;54.60;41.60;;;7.30;99.90;;;;;;5064348;28;20467;-86
2021/03/23 20:03:56;;;;;;;55.13;43.40;;;7.30;99.90;;;;;;5065266;28;20494;-86
2021/03/23 20:06:24;;;;;;;54.03;42.57;;;7.20;99.90;;;;;;5066271;28;20471;-86
2021/03/23 20:08:53;;;;;;;55.10;43.90;;;7.20;99.90;;;;;;5064498;28;20469;-86
2021/03/23 20:11:22;;;;;;;54.57;42.70;;;7.20;99.90;;;;;;5061676;28;20453;-87
2021/03/23 20:13:51;;;;;;;53.40;44.20;;;7.10;99.90;;;;;;5060845;28;20495;-87
2021/03/23 20:16:18;;;;;;;54.63;43.20;;;7.10;99.90;;;;;;5060711;28;20529;-87
2021/03/23 20:19:02;;;;;;;54.27;44.23;;;7.10;99.90;;;;;;5064214;28;20461;-87
2021/03/23 20:21:34;;;;;;;55.13;44.63;;;7.00;99.90;;;;;;5064626;28;20441;-87
2021/03/23 20:24:02;;;;;;;52.47;43.87;;;7.00;99.90;;;;;;5082242;28;20441;-87
2021/03/23 20:26:32;;;;;;;53.90;44.03;;;7.00;99.90;;;;;;5064128;28;20776;-87
2021/03/23 20:28:59;;;;;;;57.13;43.37;;;6.90;99.90;;;;;;5064117;28;20472;-86
2021/03/23 20:31:31;;;;;;;58.03;43.83;;;6.90;99.90;;;;;;5061417;28;20508;-87
2021/03/23 20:33:59;;;;;;;56.33;44.50;;;6.90;99.90;;;;;;5044225;28;20509;-88
2021/03/23 20:36:30;;;;;;;56.40;42.70;;;6.80;99.90;;;;;;5056925;28;20568;-87
2021/03/23 20:38:58;;;;;;;60.40;45.50;;;6.80;99.90;;;;;;5065640;28;20510;-85
2021/03/23 20:41:32;;;;;;;59.30;45.47;;;6.80;99.90;;;;;;5065032;28;20438;-85
2021/03/23 20:44:01;;;;;;;61.13;46.50;;;6.80;99.90;;;;;;5065109;28;20475;-85
2021/03/23 20:46:33;;;;;;;57.20;44.47;;;6.80;99.90;;;;;;5063430;28;20479;-85
2021/03/23 20:49:11;;;;;;;64.40;46.77;;;6.80;99.90;;;;;;5065363;28;20564;-85
2021/03/23 20:51:42;;;;;;;60.33;46.40;;;6.70;99.90;;;;;;5062914;28;20450;-86
2021/03/23 20:54:10;;;;;;;58.93;45.53;;;6.80;99.90;;;;;;5083248;28;20427;-85
2021/03/23 20:56:38;;;;;;;59.70;47.13;;;6.70;99.90;;;;;;5064856;28;20499;-85
2021/03/23 20:59:07;;;;;;;66.70;47.70;;;6.70;99.90;;;;;;5064856;28;20490;-85
2021/03/23 21:01:34;;;;;;;62.00;45.70;;;6.70;99.90;;;;;;5064913;28;20459;-85
2021/03/23 21:04:02;;;;;;;60.07;46.40;;;6.70;99.90;;;;;;5065063;28;20456;-85
2021/03/23 21:06:29;;;;;;;64.00;47.20;;;6.60;99.90;;;;;;5063133;28;20552;-85
2021/03/23 21:09:00;;;;;;;59.13;43.27;;;6.70;99.90;;;;;;5083427;28;20219;-85
2021/03/23 21:11:30;;;;;;;62.27;47.53;;;6.70;99.90;;;;;;5065162;28;20490;-84
2021/03/23 21:13:59;;;;;;;60.73;47.77;;;6.60;99.90;;;;;;5065165;28;20437;-85
2021/03/23 21:16:29;;;;;;;61.63;46.37;;;6.60;99.90;;;;;;5064452;28;20445;-85
2021/03/23 21:18:58;;;;;;;60.53;46.67;;;6.60;99.90;;;;;;5064243;28;20461;-85
2021/03/23 21:21:28;;;;;;;56.90;45.73;;;6.50;99.90;;;;;;5064244;28;20441;-84
2021/03/23 21:23:56;;;;;;;58.60;46.27;;;6.50;99.90;;;;;;5082421;28;20482;-85
2021/03/23 21:26:25;;;;;;;62.20;46.50;;;6.50;99.90;;;;;;5064926;28;20453;-85
2021/03/23 21:28:53;;;;;;;58.90;44.60;;;6.50;99.90;;;;;;5081771;28;20465;-85
2021/03/23 21:31:26;;;;;;;56.43;43.83;;;6.40;99.90;;;;;;5081651;28;20852;-85
2021/03/23 21:33:54;;;;;;;61.30;45.80;;;6.40;99.90;;;;;;5063199;28;20495;-85
2021/03/23 21:36:22;;;;;;;64.43;42.27;;;6.50;99.90;;;;;;5064227;28;20218;-85
2021/03/23 21:38:51;;;;;;;58.03;44.93;;;6.50;99.90;;;;;;5064027;28;20515;-84
2021/03/23 21:41:22;;;;;;;60.33;46.37;;;6.50;99.90;;;;;;5081112;28;20437;-85
2021/03/23 23:33:40;;;;;;;58.53;44.37;;;6.40;99.90;;;;;;4879987;28;20489;-85
2021/03/23 23:36:11;;;;;;;61.57;43.00;;;6.40;99.90;;;;;;5058209;28;20497;-85
2021/03/23 23:38:40;;;;;;;62.33;43.50;;;6.40;99.90;;;;;;5040375;28;20501;-85
2021/03/23 23:41:09;;;;;;;57.07;41.00;;;6.50;99.90;;;;;;5036015;28;20538;-85
2021/03/23 23:43:39;;;;;;;63.78;44.70;;;6.50;99.90;;;;;;5070389;28;20444;-85
2021/03/23 23:46:06;;;;;;;63.63;40.67;;;6.60;99.90;;;;;;5054728;28;20291;-86
2021/03/23 23:48:34;;;;;;;70.97;46.20;;;6.60;99.90;;;;;;5043673;28;20489;-86
2021/03/23 23:51:07;;;;;;;61.07;45.40;;;6.50;99.90;;;;;;5034955;28;20443;-85
